Terminal Aerodrome Forecast
Issued by NWS

Home | Current Version | Previous Version | Text Only | Print | Product List | Glossary On
Versions: 1 2 3 4 5 6 7 8 9 10 11 12 13 14 15 16 17 18 19 20 21 22 23 24 25 26 27 28 29 30 31 32
799
FTUS45 KBOI 201739
TAFBKE
TAF
KBKE 201739Z 2018/2118 32008KT P6SM VCSH BKN040 OVC070
     FM202100 32012G19KT P6SM BKN040 OVC070
     FM210100 30006KT P6SM SCT050
     FM210900 VRB03KT P6SM VCFG SKC=

USA.gov is the U.S. government's official web portal to all federal, state and local government web resources and services.